Chemainus, Canada
Current Conditions -  °F | °C
As of 7:00 PM on Friday 19 Dec 2014 (Local Time) from CYCD Reporting Station
Broken Clouds Broken Clouds  
Wind Chill: 42°   Ceiling: 20000
Heat Index: 46°   Visibility: 15mi
Dew Point: 43°   Wind: 9mph
Humidity: 87%   Direction: 140°SE
Pressure: 29.85"   Gusts: NA
Location:  48.92°N, 123.7°W
Report Text: CYCD 200300Z 14008KT 15SM FEW030 SCT100 BKN200 08/06 A2985 RMK SC2AC2CI3 SLP109
Loading
Personal Weather Stations






























Interactive Weather Map New forecast layout! Learn more

10-Day Weather Forecast

Advertisements
Track Severe Weather on mobile